»·PEaware :: CFLXM KHSV-CYVR

CFLXM :: KHSV-CYVR

FLIGHT INFORMATION

Flight Status: Arrived
Operator: Unknown
More flights by this operator :: More flights under this callsign
Pilot: Lester F. (25731)
Aircraft: Cessna 700 Citation Longitude
(C700)
More flights by this aircraft type
Origin: KHSV Huntsville Intl-Jones
United States
Destination: CYVR Vancouver Intl
Canada
More flights between these airports :: More routes between these airports
Route: MSL ARG JUDGE BFF DDY HIA TUFFY GEG EGRET GRIZZ6 26L SAVED NOXOB VR
File this flight plan on PilotEdge
Remarks:
Altitude:
(Current/Filed)
36,000ft
Speed:
(Current/Filed)
450kts
Departed: 14-Oct-20 03:02 PM
Arrived: 14-Oct-20 08:46 PM
Distance/Time
Traveled:
1821nm/5:44
Distance/Time
To Go:
Arrived

Flight Plot

Page will automatically refresh every two minutes.

Flight plan parsing failed; only flown route is shown


Map Options




Map Legend


Flown Route
Filed Route
Departure Airport
Arrival Airport
Navaid (VOR, NDB)
Fix

Horizontal Profiles

Position Reports

Time Latitude Longitude Heading Altitude Ground
Speed
14-Oct-20 14:55 34.646672 -86.776777 270 623ft 0kts
14-Oct-20 14:55 34.646672 -86.776777 270 623ft 0kts
14-Oct-20 14:57 34.646950 -86.777488 328 623ft 3kts
14-Oct-20 14:57 34.648557 -86.778621 291 626ft 8kts
14-Oct-20 14:58 34.650723 -86.779644 0 629ft 7kts
14-Oct-20 15:00 34.652665 -86.780782 270 631ft 7kts
14-Oct-20 15:00 34.652670 -86.781455 267 630ft 13kts
14-Oct-20 15:01 34.636831 -86.782374 180 861ft 172kts
14-Oct-20 15:02 34.584516 -86.773103 146 4840ft 215kts
14-Oct-20 15:03 34.522244 -86.764340 232 6958ft 270kts
14-Oct-20 15:04 34.540608 -86.829444 324 7420ft 210kts
14-Oct-20 15:05 34.589035 -86.871796 325 7989ft 227kts
14-Oct-20 15:06 34.637122 -86.935267 293 8009ft 297kts
14-Oct-20 15:07 34.651312 -87.032961 282 9744ft 286kts
14-Oct-20 15:08 34.663031 -87.125852 280 11750ft 273kts
14-Oct-20 15:09 34.674945 -87.223755 279 13753ft 330kts
14-Oct-20 15:10 34.687951 -87.332159 278 15691ft 316kts
14-Oct-20 15:11 34.700220 -87.435253 279 17695ft 315kts
14-Oct-20 15:12 34.725384 -87.539085 296 19696ft 330kts
14-Oct-20 15:13 34.768948 -87.638733 296 21701ft 337kts
14-Oct-20 15:14 34.812394 -87.739943 296 23701ft 339kts
14-Oct-20 15:15 34.855516 -87.841605 296 25703ft 336kts
14-Oct-20 15:16 34.897871 -87.941998 297 27699ft 331kts
14-Oct-20 15:17 34.939302 -88.040531 297 29407ft 331kts
14-Oct-20 15:18 34.982573 -88.143781 297 30208ft 359kts
14-Oct-20 15:19 35.030152 -88.257656 297 31111ft 393kts
14-Oct-20 15:20 35.081021 -88.379840 297 32117ft 408kts
14-Oct-20 15:21 35.132009 -88.502717 297 33108ft 409kts
14-Oct-20 15:22 35.183311 -88.626839 297 34106ft 411kts
14-Oct-20 15:23 35.234612 -88.751435 297 35112ft 412kts
14-Oct-20 15:24 35.286052 -88.876807 297 36043ft 415kts
14-Oct-20 15:25 35.338308 -89.004676 297 36162ft 421kts
14-Oct-20 15:26 35.389696 -89.130895 297 36160ft 411kts
14-Oct-20 15:27 35.440815 -89.256938 297 36156ft 418kts
14-Oct-20 15:28 35.492670 -89.385298 297 36153ft 421kts
14-Oct-20 15:29 35.543753 -89.512233 297 36150ft 412kts
14-Oct-20 15:30 35.593907 -89.637350 297 36148ft 405kts
14-Oct-20 15:31 35.643182 -89.760735 297 36146ft 400kts
14-Oct-20 15:32 35.691552 -89.882308 297 36143ft 395kts
14-Oct-20 15:33 35.739530 -90.003333 295 36141ft 392kts
14-Oct-20 15:34 35.786991 -90.123519 295 36048ft 388kts
14-Oct-20 15:35 35.833548 -90.241868 295 36049ft 383kts
14-Oct-20 15:36 35.879690 -90.359580 295 36051ft 381kts
14-Oct-20 15:37 35.926464 -90.479343 295 36053ft 394kts
14-Oct-20 15:38 35.974303 -90.602287 295 36053ft 402kts
14-Oct-20 15:39 36.022122 -90.725655 295 36058ft 395kts
14-Oct-20 15:40 36.068978 -90.847005 295 36058ft 391kts
14-Oct-20 15:41 36.115656 -90.968119 301 36062ft 389kts
14-Oct-20 15:42 36.175596 -91.078259 301 36064ft 387kts
14-Oct-20 15:43 36.235563 -91.190354 301 36066ft 397kts
14-Oct-20 15:44 36.296426 -91.305284 302 36063ft 397kts
14-Oct-20 15:45 36.356023 -91.418459 302 36065ft 390kts
14-Oct-20 15:46 36.414610 -91.530164 302 36072ft 385kts
14-Oct-20 15:47 36.472491 -91.640895 302 36064ft 382kts
14-Oct-20 15:48 36.529817 -91.750907 302 36065ft 379kts
14-Oct-20 15:49 36.586765 -91.860529 302 36065ft 380kts
14-Oct-20 15:50 36.643703 -91.970463 302 36069ft 378kts
14-Oct-20 15:51 36.700261 -92.080022 302 36068ft 377kts
14-Oct-20 15:52 36.756606 -92.189533 302 36067ft 376kts
14-Oct-20 15:53 36.812631 -92.298752 302 36072ft 375kts
14-Oct-20 15:54 36.868588 -92.408216 302 36067ft 375kts
14-Oct-20 15:55 36.924495 -92.517912 302 36059ft 375kts
14-Oct-20 15:56 36.980261 -92.627719 302 36061ft 374kts
14-Oct-20 15:57 37.035776 -92.737408 302 36065ft 375kts
14-Oct-20 15:58 37.091351 -92.847548 302 36054ft 375kts
14-Oct-20 15:59 37.146723 -92.957659 301 36046ft 375kts
14-Oct-20 16:00 37.202268 -93.068476 301 36054ft 375kts
14-Oct-20 16:01 37.257444 -93.178912 301 36039ft 374kts
14-Oct-20 16:02 37.312347 -93.289182 301 36038ft 373kts
14-Oct-20 16:03 37.367084 -93.399486 301 36031ft 373kts
14-Oct-20 16:04 37.421613 -93.509718 301 36016ft 372kts
14-Oct-20 16:05 37.476040 -93.620127 301 36012ft 371kts
14-Oct-20 16:06 37.529929 -93.729824 301 35998ft 370kts
14-Oct-20 16:07 37.583753 -93.839735 301 35988ft 369kts
14-Oct-20 16:08 37.637178 -93.949195 301 35986ft 367kts
14-Oct-20 16:09 37.690460 -94.058725 301 35983ft 366kts
14-Oct-20 16:10 37.743518 -94.168169 301 35972ft 365kts
14-Oct-20 16:11 37.796221 -94.277237 300 35973ft 364kts
14-Oct-20 16:12 37.848662 -94.386134 300 35965ft 363kts
14-Oct-20 16:13 37.900805 -94.494768 300 35959ft 362kts
14-Oct-20 16:14 37.952980 -94.603834 300 35950ft 362kts
14-Oct-20 16:15 38.004871 -94.712659 300 35946ft 361kts
14-Oct-20 16:16 38.056473 -94.821252 300 35940ft 361kts
14-Oct-20 16:17 38.108148 -94.930359 300 35938ft 361kts
14-Oct-20 16:18 38.159544 -95.039246 299 35933ft 361kts
14-Oct-20 16:19 38.210787 -95.148167 299 35921ft 361kts
14-Oct-20 16:20 38.262138 -95.257692 299 35917ft 361kts
14-Oct-20 16:21 38.313265 -95.367114 299 35911ft 361kts
14-Oct-20 16:22 38.364197 -95.476487 299 35900ft 360kts
14-Oct-20 16:23 38.415006 -95.585977 299 35894ft 360kts
14-Oct-20 16:24 38.465795 -95.695797 299 35894ft 360kts
14-Oct-20 16:25 38.516520 -95.805842 299 35883ft 360kts
14-Oct-20 16:26 38.566884 -95.915484 298 35873ft 360kts
14-Oct-20 16:27 38.617270 -96.025553 298 35863ft 360kts
14-Oct-20 16:28 38.667588 -96.135866 298 35855ft 359kts
14-Oct-20 16:29 38.717739 -96.246182 298 35850ft 359kts
14-Oct-20 16:30 38.767708 -96.356481 298 35844ft 359kts
14-Oct-20 16:31 38.817638 -96.467089 298 35840ft 359kts
14-Oct-20 16:32 38.868317 -96.579732 298 35834ft 373kts
14-Oct-20 16:34 38.920623 -96.696421 298 35826ft 384kts
14-Oct-20 16:35 38.974102 -96.816189 298 35821ft 392kts
14-Oct-20 16:36 39.028078 -96.937624 302 35817ft 388kts
14-Oct-20 16:37 39.084435 -97.053164 300 35818ft 380kts
14-Oct-20 16:38 39.139845 -97.167288 299 35816ft 374kts
14-Oct-20 16:39 39.194093 -97.279702 299 35810ft 369kts
14-Oct-20 16:40 39.247715 -97.391385 299 35798ft 365kts
14-Oct-20 16:41 39.300631 -97.502067 299 35797ft 362kts
14-Oct-20 16:42 39.352920 -97.611854 299 35804ft 360kts
14-Oct-20 16:43 39.405038 -97.721660 299 35805ft 358kts
14-Oct-20 16:44 39.456761 -97.831005 299 35798ft 357kts
14-Oct-20 16:45 39.508021 -97.939745 299 35795ft 355kts
14-Oct-20 16:46 39.559132 -98.048566 298 35796ft 354kts
14-Oct-20 16:47 39.609994 -98.157205 298 35789ft 353kts
14-Oct-20 16:48 39.660411 -98.265273 298 35789ft 351kts
14-Oct-20 16:49 39.710646 -98.373319 298 35790ft 350kts
14-Oct-20 16:50 39.760636 -98.481232 298 35782ft 350kts
14-Oct-20 16:51 39.810459 -98.589130 298 35783ft 349kts
14-Oct-20 16:52 39.860054 -98.696916 298 35781ft 347kts
14-Oct-20 16:52 39.901109 -98.786415 298 35786ft 347kts
14-Oct-20 16:54 39.958523 -98.912025 297 35774ft 346kts
14-Oct-20 16:54 39.999309 -99.001568 297 35787ft 346kts
14-Oct-20 16:56 40.056183 -99.126853 297 35776ft 345kts
14-Oct-20 16:56 40.096629 -99.216255 297 35781ft 344kts
14-Oct-20 16:57 40.144953 -99.323436 297 35776ft 344kts
14-Oct-20 16:58 40.193129 -99.430646 297 35783ft 343kts
14-Oct-20 16:59 40.241262 -99.538118 297 35772ft 343kts
14-Oct-20 17:00 40.289226 -99.645615 297 35776ft 342kts
14-Oct-20 17:01 40.336943 -99.752898 297 35762ft 342kts
14-Oct-20 17:02 40.384440 -99.860089 297 35753ft 342kts
14-Oct-20 17:03 40.432047 -99.967893 297 35758ft 342kts
14-Oct-20 17:04 40.479340 -100.075370 296 35752ft 341kts
14-Oct-20 17:05 40.526501 -100.182918 296 35737ft 341kts
14-Oct-20 17:06 40.573504 -100.290484 296 35749ft 340kts
14-Oct-20 17:07 40.620005 -100.397278 296 35752ft 339kts
14-Oct-20 17:08 40.666736 -100.504977 296 35757ft 339kts
14-Oct-20 17:09 40.713292 -100.612666 296 35749ft 338kts
14-Oct-20 17:10 40.759518 -100.719955 295 35746ft 338kts
14-Oct-20 17:11 40.805743 -100.827631 295 35762ft 338kts
14-Oct-20 17:12 40.851718 -100.935089 295 35751ft 336kts
14-Oct-20 17:13 40.897445 -101.042366 295 35766ft 335kts
14-Oct-20 17:14 40.942763 -101.149078 295 35775ft 335kts
14-Oct-20 17:15 40.988041 -101.256046 294 35782ft 334kts
14-Oct-20 17:16 41.033157 -101.363014 294 35786ft 333kts
14-Oct-20 17:17 41.077913 -101.469515 294 35789ft 332kts
14-Oct-20 17:18 41.122667 -101.576387 294 35796ft 331kts
14-Oct-20 17:19 41.167027 -101.682705 294 35804ft 330kts
14-Oct-20 17:20 41.211282 -101.789145 294 35808ft 329kts
14-Oct-20 17:21 41.255208 -101.895167 293 35822ft 328kts
14-Oct-20 17:22 41.298876 -102.000938 293 35832ft 327kts
14-Oct-20 17:23 41.342305 -102.106511 293 35843ft 326kts
14-Oct-20 17:24 41.385703 -102.212380 293 35851ft 326kts
14-Oct-20 17:25 41.428743 -102.317757 293 35855ft 325kts
14-Oct-20 17:26 41.471796 -102.423553 293 35870ft 325kts
14-Oct-20 17:27 41.514643 -102.529212 293 35872ft 324kts
14-Oct-20 17:28 41.557169 -102.634431 293 35886ft 323kts
14-Oct-20 17:29 41.599527 -102.739628 292 35889ft 322kts
14-Oct-20 17:30 41.641517 -102.844315 292 35896ft 320kts
14-Oct-20 17:31 41.683389 -102.949042 292 35912ft 319kts
14-Oct-20 17:32 41.724895 -103.053220 292 35918ft 317kts
14-Oct-20 17:33 41.765937 -103.156608 292 35913ft 316kts
14-Oct-20 17:34 41.806629 -103.259487 292 35914ft 314kts
14-Oct-20 17:35 41.847399 -103.362925 292 35920ft 312kts
14-Oct-20 17:36 41.886338 -103.466062 292 35913ft 309kts
14-Oct-20 17:37 41.930837 -103.563653 293 35932ft 307kts
14-Oct-20 17:38 41.974778 -103.661963 294 35923ft 307kts
14-Oct-20 17:39 42.018395 -103.760078 294 35939ft 306kts
14-Oct-20 17:40 42.061785 -103.857914 294 35924ft 304kts
14-Oct-20 17:41 42.104839 -103.955286 294 35924ft 304kts
14-Oct-20 17:42 42.148797 -104.054978 294 35944ft 316kts
14-Oct-20 17:43 42.194165 -104.158241 294 35936ft 326kts
14-Oct-20 17:44 42.240548 -104.264149 295 35933ft 331kts
14-Oct-20 17:45 42.286337 -104.369116 294 35895ft 321kts
14-Oct-20 17:46 42.330813 -104.471431 294 35927ft 312kts
14-Oct-20 17:47 42.375136 -104.573710 294 35931ft 321kts
14-Oct-20 17:48 42.420174 -104.677967 294 35920ft 316kts
14-Oct-20 17:49 42.463934 -104.779698 294 35938ft 310kts
14-Oct-20 17:50 42.506732 -104.879555 294 35924ft 305kts
14-Oct-20 17:51 42.548938 -104.978313 294 35918ft 301kts
14-Oct-20 17:52 42.590474 -105.075832 294 35892ft 297kts
14-Oct-20 17:53 42.631151 -105.171655 294 35899ft 291kts
14-Oct-20 17:54 42.671165 -105.266231 294 35902ft 288kts
14-Oct-20 17:55 42.710777 -105.360129 294 35909ft 285kts
14-Oct-20 17:56 42.749844 -105.453057 294 35878ft 283kts
14-Oct-20 17:57 42.788475 -105.545238 294 35885ft 279kts
14-Oct-20 17:58 42.826630 -105.636558 294 35876ft 277kts
14-Oct-20 17:59 42.864572 -105.727645 294 35856ft 275kts
14-Oct-20 18:00 42.901956 -105.817702 294 35857ft 272kts
14-Oct-20 18:01 42.938726 -105.906546 294 35890ft 270kts
14-Oct-20 18:02 42.975649 -105.996020 294 35873ft 270kts
14-Oct-20 18:03 43.012343 -106.085235 293 35869ft 268kts
14-Oct-20 18:04 43.048658 -106.173773 293 35894ft 268kts
14-Oct-20 18:05 43.084414 -106.263421 293 35869ft 274kts
14-Oct-20 18:06 43.129935 -106.351341 297 35894ft 289kts
14-Oct-20 18:07 43.177255 -106.443411 298 35887ft 299kts
14-Oct-20 18:08 43.225843 -106.537918 298 35904ft 307kts
14-Oct-20 18:09 43.275290 -106.634191 298 35905ft 313kts
14-Oct-20 18:10 43.325674 -106.732504 298 35907ft 316kts
14-Oct-20 18:11 43.376138 -106.831368 298 35919ft 318kts
14-Oct-20 18:12 43.426708 -106.930720 298 35908ft 317kts
14-Oct-20 18:13 43.477141 -107.030164 298 35903ft 315kts
14-Oct-20 18:14 43.526898 -107.128654 298 35963ft 314kts
14-Oct-20 18:15 43.577139 -107.228296 298 35943ft 317kts
14-Oct-20 18:16 43.627876 -107.329267 298 35996ft 324kts
14-Oct-20 18:17 43.678747 -107.431153 298 35980ft 321kts
14-Oct-20 18:18 43.729419 -107.532613 298 35954ft 322kts
14-Oct-20 18:19 43.779891 -107.634152 298 35941ft 322kts
14-Oct-20 18:20 43.830566 -107.736483 298 35977ft 323kts
14-Oct-20 18:21 43.881160 -107.839031 297 35982ft 323kts
14-Oct-20 18:22 43.931775 -107.941918 297 35979ft 324kts
14-Oct-20 18:23 43.982319 -108.045068 297 35972ft 324kts
14-Oct-20 18:24 44.032739 -108.148365 297 35974ft 324kts
14-Oct-20 18:25 44.083057 -108.251780 297 35987ft 324kts
14-Oct-20 18:26 44.133467 -108.355719 297 35994ft 324kts
14-Oct-20 18:28 44.183554 -108.459403 297 35990ft 323kts
14-Oct-20 18:29 44.233448 -108.563053 298 35991ft 322kts
14-Oct-20 18:30 44.282808 -108.665957 298 36017ft 321kts
14-Oct-20 18:31 44.332017 -108.768903 298 36040ft 320kts
14-Oct-20 18:32 44.381258 -108.872297 298 36030ft 320kts
14-Oct-20 18:33 44.430456 -108.975925 299 36042ft 319kts
14-Oct-20 18:34 44.479310 -109.079307 298 36061ft 320kts
14-Oct-20 18:35 44.527821 -109.182395 298 35878ft 314kts
14-Oct-20 18:36 44.575160 -109.283127 298 36043ft 308kts
14-Oct-20 18:37 44.622555 -109.384331 299 36148ft 315kts
14-Oct-20 18:38 44.670502 -109.487049 298 36032ft 318kts
14-Oct-20 18:39 44.719182 -109.591886 302 36170ft 321kts
14-Oct-20 18:40 44.767991 -109.697459 299 36039ft 320kts
14-Oct-20 18:41 44.816194 -109.801956 298 36104ft 317kts
14-Oct-20 18:42 44.864043 -109.906175 298 36004ft 318kts
14-Oct-20 18:42 44.904037 -109.993514 298 36250ft 321kts
14-Oct-20 18:44 44.961211 -110.118916 298 36182ft 329kts
14-Oct-20 18:44 45.002315 -110.209086 298 36253ft 328kts
14-Oct-20 18:46 45.059886 -110.336373 298 36168ft 331kts
14-Oct-20 18:46 45.101540 -110.428735 299 36152ft 335kts
14-Oct-20 18:47 45.151195 -110.539144 299 36110ft 329kts
14-Oct-20 18:48 45.200518 -110.649241 300 36281ft 327kts
14-Oct-20 18:49 45.249343 -110.758914 299 36311ft 334kts
14-Oct-20 18:50 45.299429 -110.871676 299 36201ft 339kts
14-Oct-20 18:51 45.349268 -110.984304 299 36031ft 333kts
14-Oct-20 18:52 45.398304 -111.095663 298 36154ft 334kts
14-Oct-20 18:53 45.447496 -111.207609 299 36250ft 337kts
14-Oct-20 18:54 45.497399 -111.321714 299 36220ft 344kts
14-Oct-20 18:55 45.547909 -111.437779 298 36184ft 344kts
14-Oct-20 18:56 45.597617 -111.552363 299 36189ft 340kts
14-Oct-20 18:57 45.647302 -111.667470 299 36182ft 339kts
14-Oct-20 18:58 45.696592 -111.782053 299 36191ft 340kts
14-Oct-20 18:59 45.746012 -111.897451 299 36149ft 339kts
14-Oct-20 19:00 45.794868 -112.011948 299 36206ft 337kts
14-Oct-20 19:01 45.843583 -112.127543 297 36176ft 340kts
14-Oct-20 19:02 45.895179 -112.241422 300 36151ft 341kts
14-Oct-20 19:03 45.946544 -112.354934 300 36087ft 336kts
14-Oct-20 19:04 45.996914 -112.466306 301 36246ft 335kts
14-Oct-20 19:05 46.048216 -112.580094 301 36153ft 340kts
14-Oct-20 19:06 46.099529 -112.694204 301 36153ft 340kts
14-Oct-20 19:07 46.150962 -112.808991 301 36207ft 344kts
14-Oct-20 19:08 46.202774 -112.925078 301 36177ft 344kts
14-Oct-20 19:09 46.254236 -113.040884 301 36242ft 344kts
14-Oct-20 19:10 46.305548 -113.156934 301 36253ft 344kts
14-Oct-20 19:11 46.357128 -113.273992 301 36263ft 348kts
14-Oct-20 19:12 46.409198 -113.392627 301 36202ft 348kts
14-Oct-20 19:13 46.460857 -113.510985 301 36231ft 350kts
14-Oct-20 19:14 46.512301 -113.629293 301 36182ft 349kts
14-Oct-20 19:15 46.563721 -113.747787 301 35973ft 350kts
14-Oct-20 19:16 46.614688 -113.866044 301 36212ft 347kts
14-Oct-20 19:17 46.665760 -113.984822 301 36243ft 349kts
14-Oct-20 19:18 46.715640 -114.106424 296 36201ft 350kts
14-Oct-20 19:19 46.748874 -114.238863 294 36262ft 349kts
14-Oct-20 19:20 46.782758 -114.371173 293 36235ft 348kts
14-Oct-20 19:21 46.816571 -114.502921 293 36241ft 346kts
14-Oct-20 19:22 46.850204 -114.634472 292 36251ft 347kts
14-Oct-20 19:23 46.883943 -114.766814 292 36358ft 349kts
14-Oct-20 19:24 46.917691 -114.900008 292 36319ft 350kts
14-Oct-20 19:25 46.951447 -115.034147 293 36452ft 348kts
14-Oct-20 19:26 46.984767 -115.167376 292 36172ft 349kts
14-Oct-20 19:27 47.017535 -115.299233 292 36273ft 345kts
14-Oct-20 19:28 47.050213 -115.431554 292 36248ft 343kts
14-Oct-20 19:29 47.082498 -115.563163 292 36369ft 347kts
14-Oct-20 19:30 47.117787 -115.694886 297 36267ft 347kts
14-Oct-20 19:31 47.146219 -115.830079 290 36291ft 350kts
14-Oct-20 19:32 47.179344 -115.963682 291 36311ft 350kts
14-Oct-20 19:33 47.212013 -116.098349 293 36253ft 349kts
14-Oct-20 19:34 47.244168 -116.232945 293 36288ft 349kts
14-Oct-20 19:35 47.275934 -116.367013 292 36308ft 345kts
14-Oct-20 19:36 47.307103 -116.499557 292 36336ft 342kts
14-Oct-20 19:37 47.338085 -116.631963 292 36304ft 341kts
14-Oct-20 19:38 47.368674 -116.763431 293 36305ft 338kts
14-Oct-20 19:39 47.398835 -116.893649 292 36296ft 336kts
14-Oct-20 19:40 47.428719 -117.023727 293 36297ft 334kts
14-Oct-20 19:41 47.458209 -117.152900 293 36291ft 332kts
14-Oct-20 19:42 47.487448 -117.281710 293 36301ft 330kts
14-Oct-20 19:43 47.516375 -117.409905 293 36286ft 328kts
14-Oct-20 19:44 47.545007 -117.537555 293 36274ft 325kts
14-Oct-20 19:45 47.573691 -117.663126 295 36283ft 322kts
14-Oct-20 19:46 47.603167 -117.787806 294 36297ft 321kts
14-Oct-20 19:47 47.632483 -117.911784 294 36292ft 320kts
14-Oct-20 19:48 47.661692 -118.035966 294 36290ft 319kts
14-Oct-20 19:49 47.690634 -118.159724 294 36287ft 318kts
14-Oct-20 19:50 47.719396 -118.283478 294 36315ft 317kts
14-Oct-20 19:51 47.747970 -118.407116 294 36293ft 316kts
14-Oct-20 19:52 47.776248 -118.530222 294 36299ft 314kts
14-Oct-20 19:53 47.804298 -118.653057 294 36293ft 313kts
14-Oct-20 19:54 47.832134 -118.775662 294 36293ft 313kts
14-Oct-20 19:55 47.859663 -118.897556 294 36300ft 310kts
14-Oct-20 19:56 47.887015 -119.019397 294 36304ft 311kts
14-Oct-20 19:57 47.914375 -119.141802 294 36296ft 312kts
14-Oct-20 19:58 47.941588 -119.264601 294 36305ft 310kts
14-Oct-20 19:59 47.968519 -119.386747 294 36316ft 311kts
14-Oct-20 20:00 47.995435 -119.509416 294 36280ft 313kts
14-Oct-20 20:01 48.022285 -119.632634 293 36346ft 313kts
14-Oct-20 20:02 48.049090 -119.756398 294 36246ft 311kts
14-Oct-20 20:03 48.075710 -119.879888 293 36304ft 316kts
14-Oct-20 20:04 48.102465 -120.004872 293 36448ft 317kts
14-Oct-20 20:05 48.130711 -120.131010 293 36345ft 324kts
14-Oct-20 20:06 48.153358 -120.261674 292 36175ft 320kts
14-Oct-20 20:07 48.175614 -120.389876 291 36436ft 312kts
14-Oct-20 20:08 48.197474 -120.514207 291 36627ft 310kts
14-Oct-20 20:09 48.218715 -120.636252 291 36486ft 293kts
14-Oct-20 20:10 48.239265 -120.755463 291 36547ft 289kts
14-Oct-20 20:11 48.259149 -120.870868 293 36599ft 279kts
14-Oct-20 20:12 48.278282 -120.983076 291 36578ft 271kts
14-Oct-20 20:13 48.297301 -121.094824 292 37442ft 278kts
14-Oct-20 20:14 48.318067 -121.214606 288 36224ft 290kts
14-Oct-20 20:15 48.335490 -121.321907 291 35773ft 262kts
14-Oct-20 20:16 48.351996 -121.422765 291 34637ft 236kts
14-Oct-20 20:17 48.365929 -121.506902 292 32826ft 181kts
14-Oct-20 20:18 48.378133 -121.581148 292 30730ft 181kts
14-Oct-20 20:19 48.390225 -121.654909 291 28423ft 185kts
14-Oct-20 20:20 48.407286 -121.728958 299 25871ft 209kts
14-Oct-20 20:22 48.443622 -121.804370 304 24489ft 231kts
14-Oct-20 20:23 48.481798 -121.884193 304 24684ft 230kts
14-Oct-20 20:24 48.519904 -121.963482 303 24476ft 236kts
14-Oct-20 20:25 48.557290 -122.041583 303 24383ft 223kts
14-Oct-20 20:26 48.591976 -122.114755 301 24416ft 214kts
14-Oct-20 20:27 48.620061 -122.205206 296 23237ft 258kts
14-Oct-20 20:28 48.650521 -122.305042 295 21211ft 266kts
14-Oct-20 20:29 48.681715 -122.409114 294 19089ft 278kts
14-Oct-20 20:30 48.716071 -122.516732 298 17076ft 290kts
14-Oct-20 20:31 48.766608 -122.615550 304 14994ft 315kts
14-Oct-20 20:32 48.820060 -122.720435 305 14034ft 304kts
14-Oct-20 20:33 48.870490 -122.819558 306 13996ft 293kts
14-Oct-20 20:34 48.919819 -122.916986 306 13071ft 285kts
14-Oct-20 20:35 48.975445 -122.991709 340 10896ft 271kts
14-Oct-20 20:36 49.041193 -122.998538 358 8664ft 195kts
14-Oct-20 20:37 49.075483 -122.946341 96 6610ft 223kts
14-Oct-20 20:38 49.072857 -122.853045 71 4410ft 221kts
14-Oct-20 20:39 49.117751 -122.816547 5 3089ft 174kts
14-Oct-20 20:40 49.150272 -122.853208 273 2996ft 186kts
14-Oct-20 20:40 49.156556 -122.916292 280 2991ft 166kts
14-Oct-20 20:41 49.163765 -122.977625 278 2378ft 145kts
14-Oct-20 20:42 49.170671 -123.038018 278 1615ft 147kts
14-Oct-20 20:43 49.177662 -123.099120 279 848ft 145kts
14-Oct-20 20:44 49.184540 -123.159144 280 92ft 136kts
14-Oct-20 20:45 49.186939 -123.180099 279 11ft 15kts
14-Oct-20 20:46 49.188680 -123.180898 11 10ft 3kts
14-Oct-20 20:47 49.189496 -123.183827 280 10ft 11kts
14-Oct-20 20:48 49.191734 -123.187033 324 11ft 9kts
14-Oct-20 20:49 49.194507 -123.187336 357 11ft 11kts
14-Oct-20 20:50 49.197763 -123.185860 17 12ft 14kts
14-Oct-20 20:51 49.200379 -123.183784 101 13ft 11kts
14-Oct-20 20:52 49.199905 -123.179727 99 13ft 9kts
14-Oct-20 20:53 49.199148 -123.175381 92 12ft 11kts
14-Oct-20 20:54 49.197944 -123.171899 181 12ft 11kts
14-Oct-20 20:55 49.196434 -123.174419 250 11ft 9kts
14-Oct-20 20:56 49.196374 -123.176334 300 12ft 0kts

Navigation Log

Ident Type
Flight plan parsing failed, navigation log unavailable